createdAt,value
2023-01-07T00:04:28.296Z,9.10
2023-01-07T00:09:29.957Z,9.10
2023-01-07T00:14:31.641Z,9.10
2023-01-07T00:19:33.343Z,8.80
2023-01-07T00:24:35.023Z,8.70
2023-01-07T00:29:36.712Z,8.70
2023-01-07T00:34:39.018Z,8.50
2023-01-07T00:39:42.042Z,8.60
2023-01-07T00:44:43.786Z,8.80
2023-01-07T00:49:46.928Z,8.90
2023-01-07T00:54:48.608Z,8.90
2023-01-07T00:59:50.381Z,8.80
2023-01-07T01:04:52.075Z,8.40
2023-01-07T01:09:53.919Z,8.30
2023-01-07T01:14:55.709Z,8.10
2023-01-07T01:19:57.375Z,8.00
2023-01-07T01:24:59.079Z,8.00
2023-01-07T01:30:02.149Z,7.90
2023-01-07T01:35:04.054Z,7.90
2023-01-07T01:40:06.742Z,7.80
2023-01-07T01:45:10.650Z,7.80
2023-01-07T01:50:32.679Z,7.70
2023-01-07T01:55:43.408Z,7.70
2023-01-07T02:00:45.268Z,7.80
2023-01-07T02:05:48.847Z,7.70
2023-01-07T02:10:58.906Z,7.60
2023-01-07T02:16:25.522Z,7.60
2023-01-07T02:21:48.145Z,7.60
2023-01-07T02:27:11.898Z,7.60
2023-01-07T02:32:32.569Z,7.70
2023-01-07T02:37:55.454Z,7.90
2023-01-07T02:43:34.639Z,8.00
2023-01-07T02:48:37.876Z,8.10
2023-01-07T02:53:43.281Z,8.20
2023-01-07T02:59:17.633Z,8.30
2023-01-07T03:04:22.300Z,8.20
2023-01-07T03:09:51.066Z,8.30
2023-01-07T03:15:11.451Z,8.50
2023-01-07T03:20:13.807Z,8.60
2023-01-07T03:25:19.157Z,8.60
2023-01-07T03:30:22.518Z,8.70
2023-01-07T03:35:26.051Z,8.80
2023-01-07T03:40:27.998Z,8.80
2023-01-07T03:45:29.855Z,8.70
2023-01-07T03:50:31.603Z,8.60
2023-01-07T03:55:33.370Z,8.60
2023-01-07T04:00:35.059Z,8.50
2023-01-07T04:05:36.705Z,8.40
2023-01-07T04:10:38.377Z,8.40
2023-01-07T04:15:40.067Z,8.50
2023-01-07T04:20:46.461Z,8.70
2023-01-07T04:25:49.476Z,9.00
2023-01-07T04:30:51.667Z,9.00
2023-01-07T04:35:53.586Z,9.00
2023-01-07T04:40:55.422Z,9.10
2023-01-07T04:45:57.193Z,9.10
2023-01-07T04:50:58.965Z,9.20
2023-01-07T04:56:00.741Z,9.20
2023-01-07T05:01:03.736Z,9.40
2023-01-07T05:06:06.079Z,9.30
2023-01-07T05:11:07.836Z,9.30
2023-01-07T05:16:09.580Z,9.30
2023-01-07T05:21:12.370Z,9.30
2023-01-07T05:26:14.054Z,9.30
2023-01-07T05:31:15.876Z,9.30
2023-01-07T05:36:17.583Z,9.30
2023-01-07T05:41:19.282Z,9.50
2023-01-07T05:46:21.127Z,9.40
2023-01-07T05:51:22.870Z,9.40
2023-01-07T05:56:24.644Z,9.40
2023-01-07T06:01:26.417Z,9.40
2023-01-07T06:06:28.326Z,9.50
2023-01-07T06:11:30.193Z,9.30
2023-01-07T06:16:31.869Z,9.40
2023-01-07T06:21:33.644Z,9.30
2023-01-07T06:26:35.342Z,9.10
2023-01-07T06:31:37.172Z,9.10
2023-01-07T06:36:39.036Z,8.90
2023-01-07T06:41:40.716Z,8.80
2023-01-07T06:46:42.459Z,8.80
2023-01-07T06:51:44.209Z,8.70
2023-01-07T06:56:45.968Z,8.70
2023-01-07T07:01:47.713Z,8.70
2023-01-07T07:06:49.466Z,8.60
2023-01-07T07:11:51.209Z,8.60
2023-01-07T07:16:52.962Z,8.50
2023-01-07T07:21:54.740Z,8.50
2023-01-07T07:26:58.608Z,8.40
2023-01-07T07:32:00.290Z,8.50
2023-01-07T07:37:01.982Z,8.50
2023-01-07T07:42:05.140Z,8.50
2023-01-07T07:47:06.908Z,8.50
2023-01-07T07:52:08.727Z,8.60
2023-01-07T07:57:10.445Z,8.80
2023-01-07T08:02:15.805Z,9.00
2023-01-07T08:07:32.672Z,9.00
2023-01-07T08:12:39.061Z,9.00
2023-01-07T08:17:40.788Z,9.00
2023-01-07T08:22:42.493Z,9.00
2023-01-07T08:27:44.183Z,9.00
2023-01-07T08:32:45.979Z,9.10
2023-01-07T08:37:47.694Z,9.20
2023-01-07T08:42:49.336Z,9.20
2023-01-07T08:47:51.114Z,9.30
2023-01-07T08:52:52.791Z,9.40
2023-01-07T08:57:54.587Z,9.50
2023-01-07T09:02:56.309Z,9.60
2023-01-07T09:07:58.076Z,9.60
2023-01-07T09:12:59.830Z,9.70
2023-01-07T09:18:03.835Z,9.80
2023-01-07T09:23:05.561Z,9.90
2023-01-07T09:28:07.216Z,10.10
2023-01-07T09:33:09.006Z,10.10
2023-01-07T09:38:10.685Z,10.10
2023-01-07T09:43:58.716Z,10.20
2023-01-07T09:48:57.715Z,10.20
2023-01-07T09:54:02.613Z,10.30
2023-01-07T09:59:05.599Z,10.50
2023-01-07T10:04:25.241Z,10.60
2023-01-07T10:09:32.662Z,10.80
2023-01-07T10:14:56.319Z,11.00
2023-01-07T10:20:10.454Z,11.00
2023-01-07T10:25:28.605Z,11.00
2023-01-07T10:30:34.522Z,11.00
2023-01-07T10:35:40.320Z,11.00
2023-01-07T10:40:48.591Z,11.10
2023-01-07T10:46:17.555Z,11.20
2023-01-07T10:51:49.448Z,11.10
2023-01-07T10:56:58.180Z,11.10
2023-01-07T11:02:00.916Z,10.90
2023-01-07T11:07:21.739Z,10.80
2023-01-07T11:12:49.951Z,10.70
2023-01-07T11:17:59.647Z,10.80
2023-01-07T11:23:01.352Z,10.90
2023-01-07T11:28:03.668Z,11.10
2023-01-07T11:33:07.277Z,11.20
2023-01-07T11:38:28.198Z,11.20
2023-01-07T11:43:40.412Z,11.30
2023-01-07T11:49:03.033Z,11.30
2023-01-07T11:54:04.841Z,11.40
2023-01-07T11:59:20.640Z,11.50
2023-01-07T12:04:32.771Z,11.60
2023-01-07T12:09:36.419Z,11.90
2023-01-07T12:14:39.501Z,12.10
2023-01-07T12:19:52.905Z,12.20
2023-01-07T12:25:28.285Z,12.30
2023-01-07T12:30:39.090Z,12.20
2023-01-07T12:35:43.815Z,12.20
2023-01-07T12:40:49.469Z,12.20
2023-01-07T12:46:00.120Z,12.20
2023-01-07T12:51:10.955Z,12.30
2023-01-07T12:56:27.883Z,12.20
2023-01-07T13:01:31.835Z,12.10
2023-01-07T13:06:33.529Z,12.20
2023-01-07T13:11:59.626Z,12.20
2023-01-07T13:17:17.152Z,12.10
2023-01-07T13:22:41.010Z,12.00
2023-01-07T13:28:02.948Z,11.90
2023-01-07T13:33:22.352Z,11.90
2023-01-07T13:38:41.508Z,11.80
2023-01-07T13:44:16.628Z,11.70
2023-01-07T13:49:31.124Z,11.60
2023-01-07T13:54:53.716Z,11.50
2023-01-07T13:59:57.383Z,11.50
2023-01-07T14:05:11.547Z,11.40
2023-01-07T14:10:25.472Z,11.40
2023-01-07T14:15:39.608Z,11.40
2023-01-07T14:20:57.703Z,11.40
2023-01-07T14:26:05.498Z,11.40
2023-01-07T14:31:29.542Z,11.40
2023-01-07T14:37:04.813Z,11.40
2023-01-07T14:42:26.055Z,11.30
2023-01-07T14:47:46.149Z,11.30
2023-01-07T14:53:31.370Z,11.30
2023-01-07T14:59:14.472Z,11.20
2023-01-07T15:04:44.261Z,11.20
2023-01-07T15:10:18.319Z,11.10
2023-01-07T15:15:45.230Z,11.00
2023-01-07T15:20:46.963Z,11.10
2023-01-07T15:26:01.308Z,11.00
2023-01-07T15:31:41.733Z,11.00
2023-01-07T15:36:46.815Z,11.00
2023-01-07T15:41:52.040Z,11.10
2023-01-07T15:46:53.883Z,11.10
2023-01-07T15:51:57.827Z,11.00
2023-01-07T15:57:04.740Z,11.00
2023-01-07T16:02:18.894Z,11.00
2023-01-07T16:07:32.229Z,11.10
2023-01-07T16:12:38.954Z,11.10
2023-01-07T16:17:53.914Z,11.10
2023-01-07T16:23:01.732Z,11.10
2023-01-07T16:28:04.803Z,11.10
2023-01-07T16:33:06.886Z,11.10
2023-01-07T16:38:09.898Z,11.00
2023-01-07T16:43:31.169Z,11.00
2023-01-07T16:48:32.879Z,11.10
2023-01-07T16:53:35.053Z,11.00
2023-01-07T16:58:47.035Z,11.00
2023-01-07T17:03:54.849Z,11.00
2023-01-07T17:08:57.685Z,11.00
2023-01-07T17:13:59.616Z,11.00
2023-01-07T17:19:24.897Z,10.80
2023-01-07T17:24:29.709Z,11.00
2023-01-07T17:29:36.597Z,11.00
2023-01-07T17:34:38.293Z,10.90
2023-01-07T17:39:40.091Z,10.90
2023-01-07T17:44:41.929Z,10.90
2023-01-07T17:49:43.882Z,10.90
2023-01-07T17:54:45.654Z,10.90
2023-01-07T17:59:48.153Z,10.90
2023-01-07T18:04:49.849Z,10.90
2023-01-07T18:09:51.792Z,10.90
2023-01-07T18:14:55.273Z,10.80
2023-01-07T18:19:58.524Z,10.80
2023-01-07T18:25:00.238Z,10.80
2023-01-07T18:30:01.934Z,10.80
2023-01-07T18:35:03.765Z,10.90
2023-01-07T18:40:07.688Z,10.90
2023-01-07T18:45:10.671Z,10.90
2023-01-07T18:50:14.410Z,10.90
2023-01-07T18:55:17.872Z,10.80
2023-01-07T19:00:19.893Z,10.90
2023-01-07T19:05:21.555Z,10.90
2023-01-07T19:10:25.731Z,10.90
2023-01-07T19:15:27.507Z,10.80
2023-01-07T19:20:29.283Z,10.80
2023-01-07T19:25:31.382Z,10.80
2023-01-07T19:30:33.077Z,10.70
2023-01-07T19:35:34.774Z,10.70
2023-01-07T19:40:36.967Z,10.50
2023-01-07T19:45:39.854Z,10.30
2023-01-07T19:50:41.567Z,10.10
2023-01-07T19:55:43.311Z,10.00
2023-01-07T20:00:45.144Z,9.80
2023-01-07T20:05:46.877Z,9.70
2023-01-07T20:10:56.520Z,9.60
2023-01-07T20:16:10.638Z,9.50
2023-01-07T20:21:14.297Z,9.40
2023-01-07T20:26:19.766Z,9.30
2023-01-07T20:31:23.263Z,9.20
2023-01-07T20:36:32.844Z,9.10
2023-01-07T20:41:35.754Z,9.10
2023-01-07T20:46:39.267Z,9.00
2023-01-07T20:51:41.399Z,8.90
2023-01-07T20:56:45.207Z,8.80
2023-01-07T21:01:47.217Z,8.80
2023-01-07T21:06:48.983Z,8.70
2023-01-07T21:11:50.753Z,8.60
2023-01-07T21:16:52.515Z,8.50
2023-01-07T21:21:54.523Z,8.60
2023-01-07T21:26:56.216Z,8.50
2023-01-07T21:32:00.779Z,8.60
2023-01-07T21:37:02.660Z,8.40
2023-01-07T21:42:04.635Z,8.40
2023-01-07T21:47:06.492Z,8.30
2023-01-07T21:52:08.367Z,8.20
2023-01-07T21:57:10.692Z,8.20
2023-01-07T22:02:14.413Z,8.20
2023-01-07T22:07:18.202Z,8.10
2023-01-07T22:12:20.050Z,8.10
2023-01-07T22:17:23.963Z,8.20
2023-01-07T22:22:25.963Z,8.30
2023-01-07T22:27:28.807Z,8.30
2023-01-07T22:32:30.723Z,8.30
2023-01-07T22:37:32.504Z,8.20
2023-01-07T22:42:51.863Z,8.20
2023-01-07T22:47:53.868Z,8.20
2023-01-07T22:52:55.729Z,8.20
2023-01-07T22:57:58.617Z,8.20
2023-01-07T23:03:01.807Z,8.30
2023-01-07T23:08:04.097Z,8.30
2023-01-07T23:13:06.842Z,8.30
2023-01-07T23:18:09.931Z,8.10
2023-01-07T23:23:12.583Z,8.20
2023-01-07T23:28:15.486Z,8.20
2023-01-07T23:33:19.238Z,8.20
2023-01-07T23:38:21.067Z,8.20
2023-01-07T23:43:25.345Z,8.30
2023-01-07T23:48:32.512Z,8.30
2023-01-07T23:53:35.057Z,8.30
2023-01-07T23:58:37.833Z,8.30
